KAPF

Naples Municipal Airport

Naples, Florida, USA
KAPF 221120Z 2212/2312 04008KT P6SM SKC FM221400 10015KT P6SM SCT040 FM230000 09010KT P6SM SKC
Issued Valid From Valid To
Jan-22 @ 11:20 UTC
(6 hours ago)
Jan-22 @ 12:00 UTC
(5 hours ago)
Jan-23 @ 12:00 UTC
(in 19 hours)
Expired Click to View Jan-22 @ 12:00 to Jan-22 @ 14:00
KAPF 221120Z 2212/2312 04008KT P6SM SKC
Wind Visibility Clouds
40° at 8 knots Greater than 6 miles
  • Clear skies
From Jan-22 @ 14:00 to Jan-23 @ 00:00
FM221400 10015KT P6SM SCT040
Wind Visibility Clouds
100° at 15 knots Greater than 6 miles
  • Scattered at 4,000' AGL
From Jan-23 @ 00:00 to Jan-23 @ 12:00
FM230000 09010KT P6SM SKC
Wind Visibility Clouds
90° at 10 knots Greater than 6 miles
  • Clear skies
KAPF 221120Z 2212/2312 04008KT P6SM SKC FM221400 10015KT P6SM SCT040 FM230000 09010KT P6SM SKC
Issued Jan-22 @ 11:20 UTC
(6 hours ago)
Valid From Jan-22 @ 12:00 UTC
(5 hours ago)
Valid To Jan-23 @ 12:00 UTC
(in 19 hours)
Jan-22 @ 12:00 - Jan-22 @ 14:00
Wind Visibility
40° at 8 knots Greater than 6 miles
Clouds
  • Clear skies
From Jan-22 @ 14:00 - Jan-23 @ 00:00
Wind Visibility
100° at 15 knots Greater than 6 miles
Clouds
  • Scattered at 4,000' AGL
From Jan-23 @ 00:00 - Jan-23 @ 12:00
Wind Visibility
90° at 10 knots Greater than 6 miles
Clouds
  • Clear skies